Time,TemperatureF,DewpointF,PressureIn,WindDirection,WindDirectionDegrees,WindSpeedMPH,WindSpeedGustMPH,Humidity,HourlyPrecipIn,Conditions,Clouds,dailyrainin,SolarRadiationWatts/m^2,SoftwareType,DateUTC
2013-11-10 00:02:00,54.0,48.0,-100.00,NE,43,5.0,11.0,80,0.00,,,0.00,0.000000,,2013-11-10 06:02:00,
2013-11-10 00:42:00,53.0,47.0,-100.00,NNE,12,5.0,9.0,80,0.00,,,0.00,0.000000,,2013-11-10 06:42:00,
2013-11-10 00:52:00,53.0,47.0,-100.00,NNE,12,5.0,9.0,80,0.00,,,0.00,0.000000,,2013-11-10 06:52:00,
2013-11-10 01:02:00,53.0,47.0,-100.00,NNE,12,5.0,9.0,80,0.00,,,0.00,0.000000,,2013-11-10 07:02:00,
2013-11-10 01:43:00,53.0,48.0,-100.00,NNE,21,4.0,7.0,83,0.00,,,0.00,0.000000,,2013-11-10 07:43:00,
2013-11-10 01:52:00,53.0,48.0,-100.00,NNE,21,4.0,7.0,83,0.00,,,0.00,0.000000,,2013-11-10 07:52:00,
2013-11-10 02:02:00,53.0,48.0,-100.00,NNE,21,4.0,7.0,83,0.00,,,0.00,0.000000,,2013-11-10 08:02:00,
2013-11-10 02:43:00,52.0,47.0,-100.00,ENE,60,4.0,7.0,84,0.00,,,0.00,0.000000,,2013-11-10 08:43:00,
2013-11-10 02:52:00,52.0,47.0,-100.00,ENE,60,4.0,7.0,84,0.00,,,0.00,0.000000,,2013-11-10 08:52:00,
2013-11-10 03:02:00,52.0,47.0,-100.00,ENE,60,4.0,7.0,84,0.00,,,0.00,0.000000,,2013-11-10 09:02:00,
2013-11-10 03:43:00,50.0,46.0,-100.00,NNE,22,4.0,7.0,87,0.00,,,0.00,0.000000,,2013-11-10 09:43:00,
2013-11-10 03:53:00,50.0,46.0,-100.00,NNE,22,4.0,7.0,87,0.00,,,0.00,0.000000,,2013-11-10 09:53:00,
2013-11-10 04:03:00,50.0,46.0,-100.00,NNE,22,4.0,7.0,87,0.00,,,0.00,0.000000,,2013-11-10 10:03:00,
2013-11-10 04:42:00,49.0,46.0,-100.00,NNE,12,5.0,8.0,90,0.00,,,0.00,0.000000,,2013-11-10 10:42:00,
2013-11-10 04:53:00,49.0,46.0,-100.00,NNE,12,5.0,8.0,90,0.00,,,0.00,0.000000,,2013-11-10 10:53:00,
2013-11-10 05:02:00,49.0,46.0,-100.00,NNE,12,5.0,8.0,90,0.00,,,0.00,0.000000,,2013-11-10 11:02:00,
2013-11-10 05:43:00,48.0,45.0,-100.00,NNE,22,5.0,8.0,90,0.00,,,0.00,0.000000,,2013-11-10 11:43:00,
2013-11-10 05:52:00,48.0,45.0,-100.00,NNE,22,5.0,8.0,90,0.00,,,0.00,0.000000,,2013-11-10 11:52:00,
2013-11-10 06:02:00,48.0,45.0,-100.00,NNE,22,5.0,8.0,90,0.00,,,0.00,0.000000,,2013-11-10 12:02:00,
2013-11-10 09:43:00,57.0,50.0,-100.00,NE,35,4.0,8.0,76,-99.99,,,0.00,107.000000,,2013-11-10 15:43:00,
2013-11-10 09:53:00,57.0,50.0,-100.00,NE,35,4.0,8.0,76,-99.99,,,0.00,107.000000,,2013-11-10 15:53:00,
2013-11-10 10:03:00,57.0,50.0,-100.00,NE,35,4.0,8.0,76,-99.99,,,0.00,107.000000,,2013-11-10 16:03:00,
2013-11-10 10:42:00,62.0,53.0,-100.00,NNE,27,5.0,9.0,72,0.00,,,0.00,145.000000,,2013-11-10 16:42:00,
2013-11-10 10:53:00,62.0,53.0,-100.00,NNE,27,5.0,9.0,72,0.00,,,0.00,145.000000,,2013-11-10 16:53:00,
2013-11-10 11:02:00,62.0,53.0,-100.00,NNE,27,5.0,9.0,72,0.00,,,0.00,145.000000,,2013-11-10 17:02:00,
2013-11-10 11:43:00,65.0,54.0,-100.00,NNE,27,4.0,7.0,67,0.00,,,0.00,288.000000,,2013-11-10 17:43:00,
2013-11-10 11:52:00,65.0,54.0,-100.00,NNE,27,4.0,7.0,67,0.00,,,0.00,288.000000,,2013-11-10 17:52:00,
2013-11-10 12:02:00,65.0,54.0,-100.00,NNE,27,4.0,7.0,67,0.00,,,0.00,288.000000,,2013-11-10 18:02:00,
2013-11-10 13:42:00,73.0,56.0,-100.00,NE,48,4.0,8.0,56,0.00,,,0.00,499.000000,,2013-11-10 19:42:00,
2013-11-10 13:52:00,73.0,56.0,-100.00,NE,48,4.0,8.0,56,0.00,,,0.00,499.000000,,2013-11-10 19:52:00,
2013-11-10 14:02:00,73.0,56.0,-100.00,NE,48,4.0,8.0,56,0.00,,,0.00,499.000000,,2013-11-10 20:02:00,
2013-11-10 14:43:00,74.0,56.0,-100.00,NE,39,6.0,10.0,53,0.00,,,0.00,573.000000,,2013-11-10 20:43:00,
2013-11-10 14:52:00,74.0,56.0,-100.00,NE,39,6.0,10.0,53,0.00,,,0.00,573.000000,,2013-11-10 20:52:00,
2013-11-10 15:02:00,74.0,56.0,-100.00,NE,39,6.0,10.0,53,0.00,,,0.00,573.000000,,2013-11-10 21:02:00,
2013-11-10 15:43:00,73.0,56.0,-100.00,NNE,20,4.0,10.0,56,0.00,,,0.00,337.000000,,2013-11-10 21:43:00,
2013-11-10 15:55:00,73.0,56.0,-100.00,NNE,20,4.0,10.0,56,0.00,,,0.00,337.000000,,2013-11-10 21:55:00,
2013-11-10 16:04:00,73.0,56.0,-100.00,NNE,20,4.0,10.0,56,0.00,,,0.00,337.000000,,2013-11-10 22:04:00,
2013-11-10 16:43:00,71.0,55.0,-100.00,NE,35,5.0,11.0,58,0.00,,,0.00,281.000000,,2013-11-10 22:43:00,
2013-11-10 16:54:00,71.0,55.0,-100.00,NE,35,5.0,11.0,58,0.00,,,0.00,281.000000,,2013-11-10 22:54:00,
2013-11-10 17:03:00,71.0,55.0,-100.00,NE,35,5.0,11.0,58,0.00,,,0.00,281.000000,,2013-11-10 23:03:00,
2013-11-10 17:43:00,65.0,55.0,-100.00,NNE,19,4.0,9.0,71,0.00,,,0.00,55.000000,,2013-11-10 23:43:00,
2013-11-10 17:53:00,65.0,55.0,-100.00,NNE,19,4.0,9.0,71,0.00,,,0.00,55.000000,,2013-11-10 23:53:00,
2013-11-10 18:02:00,65.0,55.0,-100.00,NNE,19,4.0,9.0,71,0.00,,,0.00,55.000000,,2013-11-11 00:02:00,
2013-11-10 18:42:00,61.0,56.0,-100.00,North,3,5.0,7.0,84,0.00,,,0.00,3.000000,,2013-11-11 00:42:00,
2013-11-10 18:52:00,61.0,56.0,-100.00,North,3,5.0,7.0,84,0.00,,,0.00,3.000000,,2013-11-11 00:52:00,
2013-11-10 19:02:00,61.0,56.0,-100.00,North,3,5.0,7.0,84,0.00,,,0.00,3.000000,,2013-11-11 01:02:00,
2013-11-10 19:42:00,59.0,55.0,-100.00,North,355,5.0,9.0,88,0.00,,,0.00,0.000000,,2013-11-11 01:42:00,
2013-11-10 19:52:00,59.0,55.0,-100.00,North,355,5.0,9.0,88,0.00,,,0.00,0.000000,,2013-11-11 01:52:00,
2013-11-10 20:02:00,59.0,55.0,-100.00,North,355,5.0,9.0,88,0.00,,,0.00,0.000000,,2013-11-11 02:02:00,
2013-11-10 20:42:00,57.0,54.0,-100.00,North,5,5.0,7.0,89,0.00,,,-99.99,0.000000,,2013-11-11 02:42:00,
2013-11-10 20:52:00,57.0,54.0,-100.00,North,5,5.0,7.0,89,0.00,,,-99.99,0.000000,,2013-11-11 02:52:00,
2013-11-10 21:02:00,57.0,54.0,-100.00,North,5,5.0,7.0,89,0.00,,,-99.99,0.000000,,2013-11-11 03:02:00,
2013-11-10 21:44:00,56.0,53.0,-100.00,NNE,19,5.0,8.0,90,0.00,,,0.00,0.000000,,2013-11-11 03:44:00,
2013-11-10 21:55:00,56.0,53.0,-100.00,NNE,19,5.0,8.0,90,0.00,,,0.00,0.000000,,2013-11-11 03:55:00,
2013-11-10 22:04:00,56.0,53.0,-100.00,NNE,19,5.0,8.0,90,0.00,,,0.00,0.000000,,2013-11-11 04:04:00,
2013-11-10 22:43:00,55.0,52.0,-100.00,NNE,21,6.0,8.0,91,0.00,,,0.00,0.000000,,2013-11-11 04:43:00,
2013-11-10 22:53:00,55.0,52.0,-100.00,NNE,21,6.0,8.0,91,0.00,,,0.00,0.000000,,2013-11-11 04:53:00,
2013-11-10 23:03:00,55.0,52.0,-100.00,NNE,21,6.0,8.0,91,0.00,,,0.00,0.000000,,2013-11-11 05:03:00,
2013-11-10 23:44:00,53.0,51.0,-100.00,NNE,19,5.0,7.0,92,0.00,,,0.00,0.000000,,2013-11-11 05:44:00,
2013-11-10 23:54:00,53.0,51.0,-100.00,NNE,19,5.0,7.0,92,0.00,,,0.00,0.000000,,2013-11-11 05:54:00,